createdAt,value
2023-03-16T00:04:23.487Z,3.63
2023-03-16T00:09:31.401Z,4.82
2023-03-16T00:14:36.058Z,4.18
2023-03-16T00:19:39.118Z,5.10
2023-03-16T00:24:45.934Z,5.95
2023-03-16T00:34:52.597Z,6.68
2023-03-16T00:39:58.960Z,7.72
2023-03-16T00:45:02.250Z,7.45
2023-03-16T00:50:07.146Z,6.57
2023-03-16T00:55:10.379Z,5.35
2023-03-16T01:00:17.263Z,6.20
2023-03-16T01:05:21.839Z,3.40
2023-03-16T01:10:25.131Z,3.58
2023-03-16T01:15:28.353Z,3.53
2023-03-16T01:20:33.930Z,3.47
2023-03-16T01:25:36.991Z,4.43
2023-03-16T01:30:40.787Z,3.65
2023-03-16T01:35:55.553Z,5.70
2023-03-16T01:41:02.938Z,5.32
2023-03-16T01:46:06.448Z,3.17
2023-03-16T01:51:17.679Z,4.15
2023-03-16T01:56:26.391Z,4.65
2023-03-16T02:01:30.157Z,5.32
2023-03-16T02:06:36.166Z,5.45
2023-03-16T02:11:40.162Z,5.82
2023-03-16T02:16:48.894Z,2.20
2023-03-16T02:22:02.857Z,3.28
2023-03-16T02:27:22.477Z,2.40
2023-03-16T02:32:28.456Z,3.58
2023-03-16T02:37:34.190Z,1.63
2023-03-16T02:42:38.023Z,4.75
2023-03-16T02:47:44.174Z,2.88
2023-03-16T02:52:48.904Z,4.95
2023-03-16T02:57:52.679Z,4.40
2023-03-16T03:02:56.409Z,4.00
2023-03-16T03:07:59.612Z,4.45
2023-03-16T03:13:03.411Z,4.35
2023-03-16T03:18:07.338Z,4.35
2023-03-16T03:23:10.491Z,4.93
2023-03-16T03:28:13.439Z,3.72
2023-03-16T03:33:16.733Z,4.18
2023-03-16T03:38:19.895Z,3.97
2023-03-16T03:43:22.985Z,4.13
2023-03-16T03:48:27.811Z,3.90
2023-03-16T03:53:33.284Z,3.88
2023-03-16T03:58:56.460Z,3.33
2023-03-16T04:04:22.330Z,4.70
2023-03-16T04:09:25.423Z,3.85
2023-03-16T04:14:30.366Z,5.13
2023-03-16T04:19:33.483Z,4.53
2023-03-16T04:24:37.065Z,5.07
2023-03-16T04:29:40.561Z,4.35
2023-03-16T04:34:44.544Z,4.95
2023-03-16T04:39:50.516Z,5.63
2023-03-16T04:44:53.768Z,7.22
2023-03-16T04:49:57.258Z,6.75
2023-03-16T04:55:01.251Z,7.35
2023-03-16T05:00:26.989Z,5.68
2023-03-16T05:05:39.603Z,14.52
2023-03-16T05:10:45.005Z,7.90
2023-03-16T05:15:48.791Z,8.18
2023-03-16T05:21:00.597Z,9.85
2023-03-16T05:26:13.600Z,11.50
2023-03-16T05:31:17.429Z,9.15
2023-03-16T05:36:26.037Z,8.73
2023-03-16T05:41:34.122Z,10.13
2023-03-16T05:46:42.788Z,11.35
2023-03-16T05:51:46.049Z,10.65
2023-03-16T05:56:50.314Z,11.80
2023-03-16T06:01:54.426Z,10.52
2023-03-16T06:06:58.168Z,10.05
2023-03-16T06:12:04.473Z,16.10
2023-03-16T06:17:19.724Z,9.27
2023-03-16T06:22:26.907Z,10.23
2023-03-16T06:27:33.888Z,11.45
2023-03-16T06:32:52.533Z,12.25
2023-03-16T06:37:56.439Z,9.20
2023-03-16T06:43:12.651Z,10.95
2023-03-16T06:48:22.616Z,11.50
2023-03-16T06:53:28.074Z,10.00
2023-03-16T06:58:32.604Z,9.70
2023-03-16T07:03:37.588Z,11.65
2023-03-16T07:08:49.972Z,11.43
2023-03-16T07:13:54.321Z,11.73
2023-03-16T07:18:59.062Z,13.35
2023-03-16T07:24:02.183Z,13.10
2023-03-16T07:29:10.407Z,10.07
2023-03-16T07:34:13.818Z,10.07
2023-03-16T07:39:22.308Z,11.85
2023-03-16T07:49:31.846Z,11.52
2023-03-16T07:54:36.771Z,10.52
2023-03-16T07:59:42.395Z,11.48
2023-03-16T08:04:48.980Z,8.77
2023-03-16T08:09:53.851Z,11.88
2023-03-16T08:15:06.207Z,12.35
2023-03-16T08:20:17.056Z,12.32
2023-03-16T08:25:21.199Z,8.75
2023-03-16T08:30:51.392Z,9.65
2023-03-16T08:36:21.287Z,10.48
2023-03-16T08:41:31.350Z,8.23
2023-03-16T08:46:38.443Z,10.95
2023-03-16T08:51:44.794Z,10.23
2023-03-16T08:56:48.087Z,8.98
2023-03-16T09:01:51.254Z,12.68
2023-03-16T09:07:09.964Z,7.68
2023-03-16T09:12:13.974Z,9.80
2023-03-16T09:17:17.348Z,10.07
2023-03-16T09:22:21.735Z,9.93
2023-03-16T09:27:25.728Z,9.65
2023-03-16T09:32:28.881Z,10.40
2023-03-16T09:37:44.552Z,9.68
2023-03-16T09:43:25.881Z,9.15
2023-03-16T09:48:34.174Z,7.88
2023-03-16T09:53:39.620Z,9.48
2023-03-16T09:58:42.818Z,9.65
2023-03-16T10:04:02.282Z,10.32
2023-03-16T10:09:21.565Z,9.95
2023-03-16T10:14:34.270Z,9.45
2023-03-16T10:19:48.210Z,7.88
2023-03-16T10:25:00.325Z,9.13
2023-03-16T10:30:19.194Z,11.70
2023-03-16T10:35:48.732Z,8.27
2023-03-16T10:40:53.341Z,10.07
2023-03-16T10:46:02.705Z,9.27
2023-03-16T10:51:13.646Z,9.48
2023-03-16T10:56:27.729Z,8.77
2023-03-16T11:01:32.272Z,8.77
2023-03-16T11:06:35.359Z,9.63
2023-03-16T11:11:39.090Z,12.50
2023-03-16T11:17:03.072Z,11.07
2023-03-16T11:27:38.400Z,9.77
2023-03-16T11:32:47.401Z,6.32
2023-03-16T11:38:12.258Z,13.07
2023-03-16T11:43:26.463Z,10.55
2023-03-16T11:48:50.935Z,8.90
2023-03-16T11:54:21.184Z,7.60
2023-03-16T11:59:51.988Z,7.93
2023-03-16T12:05:20.900Z,8.20
2023-03-16T12:10:31.811Z,9.35
2023-03-16T12:15:57.208Z,8.88
2023-03-16T12:21:02.013Z,8.25
2023-03-16T12:26:05.291Z,10.35
2023-03-16T12:31:28.849Z,12.40
2023-03-16T12:36:38.009Z,9.98
2023-03-16T12:41:54.557Z,9.43
2023-03-16T12:47:24.332Z,8.90
2023-03-16T12:52:27.552Z,11.25
2023-03-16T12:57:31.157Z,13.90
2023-03-16T13:02:37.563Z,8.15
2023-03-16T13:08:17.571Z,8.00
2023-03-16T13:13:25.864Z,9.15
2023-03-16T13:18:36.247Z,8.73
2023-03-16T13:23:58.754Z,9.75
2023-03-16T13:29:21.681Z,9.43
2023-03-16T13:34:30.780Z,11.60
2023-03-16T13:39:33.940Z,10.25
2023-03-16T13:44:41.426Z,9.02
2023-03-16T13:49:51.135Z,9.30
2023-03-16T13:54:55.395Z,10.63
2023-03-16T14:00:06.525Z,9.60
2023-03-16T14:05:19.097Z,8.93
2023-03-16T14:10:29.916Z,10.23
2023-03-16T14:15:33.152Z,8.15
2023-03-16T14:20:41.418Z,9.93
2023-03-16T14:25:45.090Z,8.85
2023-03-16T14:30:53.468Z,7.85
2023-03-16T14:35:59.249Z,8.82
2023-03-16T14:41:12.519Z,7.15
2023-03-16T14:46:29.946Z,6.95
2023-03-16T14:51:35.607Z,4.13
2023-03-16T14:56:38.640Z,9.23
2023-03-16T15:01:41.820Z,7.18
2023-03-16T15:06:45.063Z,6.95
2023-03-16T15:11:48.136Z,8.15
2023-03-16T15:16:52.113Z,6.53
2023-03-16T15:21:55.260Z,6.47
2023-03-16T15:26:58.405Z,6.53
2023-03-16T15:32:01.676Z,6.70
2023-03-16T15:37:04.899Z,7.43
2023-03-16T15:42:18.871Z,9.00
2023-03-16T15:47:22.065Z,6.85
2023-03-16T15:52:32.895Z,6.90
2023-03-16T15:57:37.032Z,7.82
2023-03-16T16:02:40.212Z,7.57
2023-03-16T16:07:43.352Z,7.85
2023-03-16T16:12:51.795Z,6.43
2023-03-16T16:18:19.215Z,5.72
2023-03-16T16:23:19.646Z,9.95
2023-03-16T16:28:26.788Z,9.30
2023-03-16T16:33:34.931Z,11.82
2023-03-16T16:38:38.056Z,14.13
2023-03-16T16:43:44.608Z,14.45
2023-03-16T16:48:50.403Z,13.23
2023-03-16T16:53:56.116Z,12.65
2023-03-16T16:59:07.777Z,10.65
2023-03-16T17:04:17.846Z,11.70
2023-03-16T17:09:21.460Z,10.93
2023-03-16T17:14:27.892Z,9.98
2023-03-16T17:19:30.982Z,5.65
2023-03-16T17:24:33.981Z,5.63
2023-03-16T17:29:37.059Z,4.07
2023-03-16T17:34:40.104Z,3.08
2023-03-16T17:39:43.326Z,2.65
2023-03-16T17:44:49.023Z,4.47
2023-03-16T17:49:52.330Z,3.10
2023-03-16T17:54:55.708Z,3.92
2023-03-16T18:00:00.641Z,3.10
2023-03-16T18:05:05.836Z,5.22
2023-03-16T18:10:17.098Z,5.20
2023-03-16T18:15:23.413Z,3.58
2023-03-16T18:20:36.790Z,4.43
2023-03-16T18:25:40.179Z,4.22
2023-03-16T18:30:54.031Z,4.22
2023-03-16T18:36:00.807Z,5.75
2023-03-16T18:41:21.243Z,5.70
2023-03-16T18:46:36.952Z,4.72
2023-03-16T18:51:41.368Z,8.73
2023-03-16T18:56:44.418Z,6.45
2023-03-16T19:01:48.170Z,6.22
2023-03-16T19:06:54.007Z,9.70
2023-03-16T19:11:57.333Z,10.80
2023-03-16T19:17:00.558Z,6.63
2023-03-16T19:22:13.344Z,8.82
2023-03-16T19:27:26.582Z,7.75
2023-03-16T19:32:29.791Z,9.82
2023-03-16T19:37:32.868Z,7.53
2023-03-16T19:42:37.375Z,12.57
2023-03-16T19:47:40.771Z,9.00
2023-03-16T19:52:43.942Z,10.25
2023-03-16T19:57:49.551Z,10.25
2023-03-16T20:02:56.205Z,11.27
2023-03-16T20:08:01.653Z,9.65
2023-03-16T20:13:07.025Z,11.55
2023-03-16T20:18:15.603Z,12.75
2023-03-16T20:23:25.354Z,18.23
2023-03-16T20:28:35.200Z,15.60
2023-03-16T20:33:38.304Z,17.33
2023-03-16T20:38:42.730Z,19.65
2023-03-16T20:43:46.152Z,16.35
2023-03-16T20:48:49.615Z,27.92
2023-03-16T20:53:52.831Z,25.83
2023-03-16T20:58:56.455Z,27.30
2023-03-16T21:04:00.406Z,30.80
2023-03-16T21:09:03.772Z,34.97
2023-03-16T21:14:17.179Z,32.92
2023-03-16T21:19:23.325Z,29.67
2023-03-16T21:24:27.577Z,36.15
2023-03-16T21:29:30.607Z,37.75
2023-03-16T21:34:36.571Z,38.72
2023-03-16T21:39:39.799Z,42.17
2023-03-16T21:44:42.915Z,41.67
2023-03-16T21:49:45.961Z,47.03
2023-03-16T21:54:49.046Z,47.13
2023-03-16T21:59:52.146Z,46.72
2023-03-16T22:04:57.171Z,42.72
2023-03-16T22:10:00.264Z,50.83
2023-03-16T22:15:03.458Z,46.30
2023-03-16T22:20:27.563Z,47.28
2023-03-16T22:25:31.161Z,50.10
2023-03-16T22:30:34.472Z,50.58
2023-03-16T22:35:38.743Z,50.28
2023-03-16T22:40:42.245Z,53.63
2023-03-16T22:45:45.345Z,49.15
2023-03-16T22:50:49.259Z,55.60
2023-03-16T22:55:54.300Z,58.58
2023-03-16T23:00:58.628Z,54.40
2023-03-16T23:06:01.864Z,52.90
2023-03-16T23:11:05.693Z,49.42
2023-03-16T23:16:18.970Z,50.63
2023-03-16T23:21:24.294Z,51.45
2023-03-16T23:26:27.589Z,57.10
2023-03-16T23:31:31.012Z,56.63
2023-03-16T23:36:34.090Z,50.22
2023-03-16T23:41:38.890Z,58.78
2023-03-16T23:46:42.413Z,55.55
2023-03-16T23:51:47.845Z,54.42
2023-03-16T23:56:51.941Z,55.85
